logo
Search for airport 
image banner adimage banner adimage banner ad
image banner ad

OEUD - Udhailiyah

Located in , Saudi Arabia

ICAO - OEUD, IATA -

Data provided by Airmate  

General information

Coordinates: N25°8'42" E49°19'42"
Elevation is 772 feet MSL.
 
View others Airports in Ash Sharqiyah

Operational data

Special qualification required
Current time UTC:
Current local time:
METAR: OEAH 202200Z 16004KT CAVOK 25/08 Q1008 NOSIG
View NOTAMs / SUP AIP / TFR affecting this airport [VIEW]
Communications frequencies: [VIEW]

Runways:

RWY identifierQFULength (ft)Width (ft)SurfaceLDA (ft)
18178°718298ASP
36358°718298ASP

Airport contact information

Address: Saudi Arabia

Satellite view of OEUD